createdAt,value
2022-10-09T00:01:30.581Z,81.11
2022-10-09T00:03:59.364Z,81.05
2022-10-09T00:06:33.119Z,80.79
2022-10-09T00:09:02.740Z,80.72
2022-10-09T00:11:32.745Z,80.73
2022-10-09T00:14:01.276Z,80.96
2022-10-09T00:16:29.521Z,80.93
2022-10-09T00:18:58.508Z,80.75
2022-10-09T00:21:30.324Z,80.65
2022-10-09T00:24:01.415Z,80.81
2022-10-09T00:26:29.601Z,81.01
2022-10-09T00:28:58.418Z,81.33
2022-10-09T00:31:26.513Z,81.47
2022-10-09T00:33:54.328Z,81.69
2022-10-09T00:36:24.929Z,81.61
2022-10-09T00:38:54.650Z,81.81
2022-10-09T00:41:31.171Z,81.77
2022-10-09T00:44:02.338Z,82.13
2022-10-09T00:46:48.290Z,82.39
2022-10-09T00:49:34.002Z,82.32
2022-10-09T00:52:05.077Z,82.49
2022-10-09T00:54:37.606Z,82.43
2022-10-09T00:57:05.685Z,82.40
2022-10-09T00:59:34.049Z,82.50
2022-10-09T01:02:02.134Z,82.40
2022-10-09T01:04:29.957Z,82.26
2022-10-09T01:07:34.153Z,81.80
2022-10-09T01:10:26.472Z,82.09
2022-10-09T01:13:15.605Z,82.37
2022-10-09T01:16:02.610Z,82.56
2022-10-09T01:18:47.091Z,82.49
2022-10-09T01:21:33.657Z,82.76
2022-10-09T01:24:22.055Z,82.85
2022-10-09T01:27:12.431Z,82.99
2022-10-09T01:29:50.338Z,82.81
2022-10-09T01:32:23.357Z,82.78
2022-10-09T01:34:52.839Z,82.79
2022-10-09T01:37:23.493Z,83.18
2022-10-09T01:39:52.540Z,83.20
2022-10-09T01:42:22.976Z,83.28
2022-10-09T01:44:51.023Z,83.23
2022-10-09T01:47:21.022Z,83.25
2022-10-09T01:49:48.723Z,83.20
2022-10-09T01:52:19.838Z,83.33
2022-10-09T01:55:17.005Z,83.31
2022-10-09T01:57:54.675Z,83.12
2022-10-09T02:00:23.283Z,83.07
2022-10-09T02:02:53.941Z,82.92
2022-10-09T02:05:25.878Z,82.83
2022-10-09T02:07:55.569Z,83.01
2022-10-09T02:10:25.015Z,83.04
2022-10-09T02:13:02.020Z,82.89
2022-10-09T02:15:41.189Z,82.87
2022-10-09T02:18:13.391Z,82.80
2022-10-09T02:20:48.214Z,82.68
2022-10-09T02:23:18.527Z,82.47
2022-10-09T02:25:46.776Z,82.17
2022-10-09T02:28:15.070Z,81.90
2022-10-09T02:31:13.769Z,81.79
2022-10-09T02:33:41.761Z,82.14
2022-10-09T02:36:09.995Z,82.28
2022-10-09T02:38:37.794Z,82.02
2022-10-09T02:41:05.773Z,81.60
2022-10-09T02:43:33.507Z,81.78
2022-10-09T02:46:01.492Z,81.95
2022-10-09T02:48:29.454Z,82.04
2022-10-09T02:50:57.390Z,82.43
2022-10-09T02:53:25.332Z,82.82
2022-10-09T02:55:53.120Z,83.09
2022-10-09T02:58:20.832Z,83.15
2022-10-09T03:00:53.455Z,83.38
2022-10-09T03:03:21.532Z,83.40
2022-10-09T03:06:07.328Z,83.47
2022-10-09T03:08:36.268Z,83.77
2022-10-09T03:11:04.332Z,83.73
2022-10-09T03:13:32.826Z,83.39
2022-10-09T03:16:05.220Z,83.53
2022-10-09T03:18:33.236Z,83.35
2022-10-09T03:21:01.303Z,83.30
2022-10-09T03:23:29.206Z,83.18
2022-10-09T03:25:58.417Z,83.13
2022-10-09T03:28:27.233Z,83.07
2022-10-09T03:30:55.944Z,83.41
2022-10-09T03:33:23.849Z,83.70
2022-10-09T03:35:51.630Z,84.07
2022-10-09T03:38:19.608Z,84.11
2022-10-09T03:40:47.441Z,84.25
2022-10-09T03:43:15.306Z,84.19
2022-10-09T03:45:43.747Z,84.01
2022-10-09T03:48:12.514Z,83.87
2022-10-09T03:50:41.823Z,83.85
2022-10-09T03:53:11.550Z,83.45
2022-10-09T03:55:40.546Z,83.55
2022-10-09T03:58:08.593Z,83.68
2022-10-09T04:00:37.125Z,83.48
2022-10-09T04:03:07.656Z,83.37
2022-10-09T04:05:36.064Z,83.45
2022-10-09T04:08:03.912Z,83.58
2022-10-09T04:10:31.848Z,83.50
2022-10-09T04:12:59.745Z,83.25
2022-10-09T04:15:27.524Z,83.35
2022-10-09T04:17:55.349Z,83.57
2022-10-09T04:20:23.397Z,83.51
2022-10-09T04:22:51.406Z,83.56
2022-10-09T04:25:19.479Z,83.41
2022-10-09T04:27:47.368Z,83.00
2022-10-09T04:30:15.289Z,83.08
2022-10-09T04:32:43.120Z,83.30
2022-10-09T04:35:11.579Z,83.54
2022-10-09T04:37:40.177Z,83.69
2022-10-09T04:40:08.720Z,83.66
2022-10-09T04:42:36.641Z,83.52
2022-10-09T04:45:05.010Z,83.27
2022-10-09T04:47:34.306Z,82.75
2022-10-09T04:50:03.086Z,81.84
2022-10-09T04:52:31.029Z,81.37
2022-10-09T04:54:58.923Z,81.45
2022-10-09T04:57:26.838Z,81.56
2022-10-09T04:59:54.683Z,81.93
2022-10-09T05:02:22.571Z,82.17
2022-10-09T05:04:51.168Z,82.32
2022-10-09T05:07:18.983Z,82.30
2022-10-09T05:09:46.854Z,82.59
2022-10-09T05:12:15.439Z,83.06
2022-10-09T05:14:43.361Z,83.20
2022-10-09T05:17:15.067Z,83.62
2022-10-09T05:19:43.231Z,83.74
2022-10-09T05:22:12.044Z,83.58
2022-10-09T05:24:39.909Z,83.59
2022-10-09T05:27:07.716Z,83.49
2022-10-09T05:29:41.152Z,83.38
2022-10-09T05:32:09.058Z,82.98
2022-10-09T05:34:36.959Z,82.66
2022-10-09T05:37:04.772Z,82.54
2022-10-09T05:39:32.702Z,82.18
2022-10-09T05:42:00.525Z,82.22
2022-10-09T05:44:28.484Z,82.06
2022-10-09T05:46:56.411Z,81.69
2022-10-09T05:49:24.263Z,81.13
2022-10-09T05:51:52.270Z,80.66
2022-10-09T05:54:20.244Z,80.32
2022-10-09T05:56:48.267Z,80.16
2022-10-09T05:59:21.313Z,79.95
2022-10-09T06:01:51.570Z,79.31
2022-10-09T06:04:22.950Z,79.44
2022-10-09T06:06:51.875Z,79.33
2022-10-09T06:09:23.679Z,79.18
2022-10-09T06:11:55.294Z,78.96
2022-10-09T06:14:24.624Z,78.48
2022-10-09T06:16:52.639Z,78.71
2022-10-09T06:19:21.171Z,78.53
2022-10-09T06:21:49.323Z,78.41
2022-10-09T06:24:27.312Z,78.54
2022-10-09T06:26:57.763Z,78.35
2022-10-09T06:29:26.128Z,78.35
2022-10-09T06:31:54.147Z,78.28
2022-10-09T06:34:22.821Z,78.02
2022-10-09T06:36:50.597Z,77.82
2022-10-09T06:39:18.663Z,77.65
2022-10-09T06:41:46.709Z,77.62
2022-10-09T06:44:17.231Z,77.65
2022-10-09T06:46:48.825Z,77.30
2022-10-09T06:49:16.837Z,77.01
2022-10-09T06:51:44.733Z,77.11
2022-10-09T06:54:17.624Z,77.15
2022-10-09T06:56:45.628Z,77.35
2022-10-09T06:59:13.449Z,77.11
2022-10-09T07:01:41.437Z,76.97
2022-10-09T07:04:14.444Z,76.62
2022-10-09T07:06:45.254Z,76.23
2022-10-09T07:09:14.883Z,76.14
2022-10-09T07:11:49.267Z,75.65
2022-10-09T07:14:17.863Z,75.44
2022-10-09T07:16:49.092Z,74.54
2022-10-09T07:19:18.070Z,74.40
2022-10-09T07:21:48.091Z,74.10
2022-10-09T07:24:20.858Z,74.22
2022-10-09T07:26:49.261Z,73.74
2022-10-09T07:29:19.066Z,73.54
2022-10-09T07:31:47.541Z,73.26
2022-10-09T07:34:16.873Z,73.07
2022-10-09T07:36:44.863Z,72.71
2022-10-09T07:39:13.807Z,72.50
2022-10-09T07:41:41.679Z,72.03
2022-10-09T07:44:10.329Z,71.64
2022-10-09T07:46:38.346Z,71.77
2022-10-09T07:49:06.474Z,71.35
2022-10-09T07:51:34.373Z,71.10
2022-10-09T07:54:02.556Z,71.28
2022-10-09T07:56:33.284Z,70.82
2022-10-09T07:59:04.737Z,70.27
2022-10-09T08:01:35.087Z,70.08
2022-10-09T08:04:06.709Z,69.77
2022-10-09T08:06:37.264Z,69.89
2022-10-09T08:09:07.047Z,69.89
2022-10-09T08:11:45.932Z,69.83
2022-10-09T08:14:19.184Z,69.02
2022-10-09T08:16:50.288Z,68.85
2022-10-09T08:19:18.303Z,68.36
2022-10-09T08:21:46.556Z,67.78
2022-10-09T08:24:14.521Z,67.96
2022-10-09T08:26:44.256Z,68.58
2022-10-09T08:29:14.091Z,68.87
2022-10-09T08:31:48.037Z,68.75
2022-10-09T08:34:15.899Z,68.59
2022-10-09T08:36:44.571Z,68.07
2022-10-09T08:39:15.688Z,67.85
2022-10-09T08:42:03.394Z,67.62
2022-10-09T08:44:40.053Z,67.65
2022-10-09T08:47:11.038Z,67.43
2022-10-09T08:49:43.200Z,67.96
2022-10-09T08:52:29.296Z,67.93
2022-10-09T08:55:03.867Z,67.66
2022-10-09T08:57:34.575Z,67.41
2022-10-09T09:00:02.796Z,66.86
2022-10-09T09:02:49.757Z,66.71
2022-10-09T09:05:36.869Z,65.99
2022-10-09T09:08:17.153Z,65.72
2022-10-09T09:11:03.826Z,64.16
2022-10-09T09:13:39.549Z,63.85
2022-10-09T09:16:31.595Z,62.78
2022-10-09T09:19:21.300Z,62.96
2022-10-09T09:21:51.557Z,63.23
2022-10-09T09:24:19.633Z,62.39
2022-10-09T09:26:53.753Z,61.64
2022-10-09T09:29:26.951Z,61.79
2022-10-09T09:32:01.229Z,61.70
2022-10-09T09:34:41.407Z,61.62
2022-10-09T09:37:21.064Z,61.55
2022-10-09T09:42:37.173Z,60.26
2022-10-09T09:45:13.237Z,59.11
2022-10-09T09:47:47.298Z,59.76
2022-10-09T09:50:42.412Z,60.38
2022-10-09T09:53:27.975Z,60.49
2022-10-09T09:55:56.623Z,60.45
2022-10-09T09:58:53.323Z,59.37
2022-10-09T10:01:30.850Z,59.40
2022-10-09T10:04:02.528Z,59.13
2022-10-09T10:06:44.147Z,58.89
2022-10-09T10:09:20.679Z,58.62
2022-10-09T10:11:55.173Z,58.99
2022-10-09T10:14:23.783Z,58.91
2022-10-09T10:16:54.318Z,59.64
2022-10-09T10:19:27.437Z,59.55
2022-10-09T10:22:06.700Z,59.12
2022-10-09T10:24:42.797Z,58.78
2022-10-09T10:27:30.202Z,59.37
2022-10-09T10:30:04.334Z,59.02
2022-10-09T10:33:02.375Z,58.55
2022-10-09T10:35:36.165Z,58.11
2022-10-09T10:38:13.113Z,57.77
2022-10-09T10:40:54.148Z,57.36
2022-10-09T10:43:46.172Z,56.80
2022-10-09T10:46:29.517Z,56.12
2022-10-09T10:49:02.252Z,56.40
2022-10-09T10:51:56.510Z,56.69
2022-10-09T10:54:46.791Z,56.89
2022-10-09T10:57:26.947Z,56.56
2022-10-09T11:00:11.173Z,56.51
2022-10-09T11:03:08.844Z,55.77
2022-10-09T11:05:41.840Z,54.85
2022-10-09T11:08:34.685Z,55.14
2022-10-09T11:11:12.100Z,55.38
2022-10-09T11:13:53.901Z,54.94
2022-10-09T11:16:36.918Z,55.18
2022-10-09T11:19:23.788Z,55.60
2022-10-09T11:22:19.158Z,55.45
2022-10-09T11:24:59.605Z,55.08
2022-10-09T11:28:04.835Z,55.35
2022-10-09T11:30:48.657Z,55.84
2022-10-09T11:33:50.260Z,56.13
2022-10-09T11:36:41.961Z,55.90
2022-10-09T11:39:20.482Z,56.14
2022-10-09T11:41:51.253Z,56.72
2022-10-09T11:44:39.143Z,56.41
2022-10-09T11:47:34.978Z,57.23
2022-10-09T11:50:28.651Z,56.91
2022-10-09T11:53:06.849Z,57.13
2022-10-09T11:55:35.361Z,56.89
2022-10-09T11:58:25.241Z,57.43
2022-10-09T12:00:56.724Z,57.43
2022-10-09T12:03:34.735Z,56.85
2022-10-09T12:06:16.808Z,56.88
2022-10-09T12:08:59.138Z,56.93
2022-10-09T12:11:28.617Z,56.45
2022-10-09T12:14:00.051Z,56.42
2022-10-09T12:16:45.858Z,56.84
2022-10-09T12:19:28.056Z,56.98
2022-10-09T12:21:58.609Z,55.60
2022-10-09T12:24:32.183Z,54.67
2022-10-09T12:27:03.332Z,55.24
2022-10-09T12:29:43.570Z,55.81
2022-10-09T12:32:23.391Z,55.13
2022-10-09T12:34:51.464Z,55.70
2022-10-09T12:37:22.697Z,55.59
2022-10-09T12:39:50.533Z,55.21
2022-10-09T12:42:24.438Z,55.32
2022-10-09T12:44:55.580Z,54.91
2022-10-09T12:47:29.363Z,54.82
2022-10-09T12:50:18.533Z,54.04
2022-10-09T12:52:54.075Z,54.43
2022-10-09T12:55:33.946Z,54.40
2022-10-09T12:58:29.434Z,54.48
2022-10-09T13:01:01.178Z,53.77
2022-10-09T13:03:54.537Z,53.49
2022-10-09T13:06:28.485Z,54.07
2022-10-09T13:09:02.576Z,54.34
2022-10-09T13:11:33.710Z,54.51
2022-10-09T13:14:02.040Z,54.53
2022-10-09T13:16:43.927Z,55.02
2022-10-09T13:19:40.735Z,55.35
2022-10-09T13:22:19.027Z,55.09
2022-10-09T13:24:57.422Z,55.03
2022-10-09T13:27:32.984Z,55.15
2022-10-09T13:30:01.728Z,55.15
2022-10-09T13:32:29.670Z,55.96
2022-10-09T13:34:58.288Z,56.13
2022-10-09T13:37:27.278Z,56.65
2022-10-09T13:39:57.473Z,56.29
2022-10-09T13:42:30.077Z,56.72
2022-10-09T13:44:58.592Z,56.97
2022-10-09T13:47:26.514Z,56.39
2022-10-09T13:49:55.039Z,56.40
2022-10-09T13:52:22.880Z,56.70
2022-10-09T13:54:50.746Z,56.80
2022-10-09T13:57:18.878Z,56.79
2022-10-09T13:59:46.952Z,56.70
2022-10-09T14:02:14.929Z,56.25
2022-10-09T14:04:42.901Z,56.41
2022-10-09T14:07:10.758Z,56.09
2022-10-09T14:09:38.771Z,55.77
2022-10-09T14:12:06.603Z,55.80
2022-10-09T14:14:34.580Z,56.11
2022-10-09T14:17:02.541Z,55.78
2022-10-09T14:19:30.367Z,55.68
2022-10-09T14:21:58.759Z,56.22
2022-10-09T14:24:27.667Z,56.54
2022-10-09T14:26:57.734Z,56.48
2022-10-09T14:29:25.661Z,56.77
2022-10-09T14:31:53.602Z,57.69
2022-10-09T14:34:22.145Z,58.16
2022-10-09T14:36:50.431Z,58.97
2022-10-09T14:39:18.258Z,59.46
2022-10-09T14:41:46.271Z,59.95
2022-10-09T14:44:14.194Z,60.26
2022-10-09T14:46:42.027Z,60.86
2022-10-09T14:49:11.153Z,60.62
2022-10-09T14:51:40.633Z,60.93
2022-10-09T14:54:10.736Z,60.88
2022-10-09T14:56:38.791Z,60.68
2022-10-09T14:59:06.934Z,61.15
2022-10-09T15:01:35.777Z,61.49
2022-10-09T15:04:07.372Z,61.30
2022-10-09T15:06:35.579Z,61.40
2022-10-09T15:09:06.072Z,61.80
2022-10-09T15:11:35.515Z,61.89
2022-10-09T15:14:04.521Z,62.37
2022-10-09T15:16:32.475Z,62.77
2022-10-09T15:19:00.421Z,62.69
2022-10-09T15:21:33.947Z,62.81
2022-10-09T15:24:03.517Z,62.87
2022-10-09T15:26:33.687Z,63.04
2022-10-09T15:29:05.056Z,63.29
2022-10-09T15:31:34.288Z,63.59
2022-10-09T15:34:03.402Z,63.83
2022-10-09T15:36:34.956Z,63.84
2022-10-09T15:39:06.130Z,64.10
2022-10-09T15:41:37.229Z,64.08
2022-10-09T15:44:16.611Z,64.04
2022-10-09T15:46:46.150Z,64.35
2022-10-09T15:49:14.479Z,64.18
2022-10-09T15:51:42.602Z,64.66
2022-10-09T15:54:12.055Z,64.58
2022-10-09T15:56:41.445Z,64.80
2022-10-09T15:59:13.711Z,64.86
2022-10-09T16:01:41.642Z,64.68
2022-10-09T16:04:10.096Z,64.99
2022-10-09T16:06:38.043Z,64.94
2022-10-09T16:09:06.200Z,64.98
2022-10-09T16:11:34.793Z,65.20
2022-10-09T16:14:02.691Z,65.36
2022-10-09T16:16:30.757Z,65.62
2022-10-09T16:19:00.205Z,65.63
2022-10-09T16:21:29.310Z,65.87
2022-10-09T16:23:59.519Z,65.99
2022-10-09T16:26:29.336Z,66.29
2022-10-09T16:28:59.179Z,66.37
2022-10-09T16:31:34.967Z,66.41
2022-10-09T16:34:05.121Z,66.39
2022-10-09T16:36:33.779Z,66.46
2022-10-09T16:39:01.679Z,67.05
2022-10-09T16:41:29.646Z,67.27
2022-10-09T16:43:59.933Z,67.70
2022-10-09T16:46:30.573Z,67.74
2022-10-09T16:48:59.891Z,67.66
2022-10-09T16:51:30.961Z,67.69
2022-10-09T16:54:00.466Z,67.84
2022-10-09T16:56:32.933Z,67.93
2022-10-09T16:59:04.278Z,68.37
2022-10-09T17:01:32.890Z,68.43
2022-10-09T17:04:01.188Z,68.56
2022-10-09T17:06:31.571Z,68.52
2022-10-09T17:08:59.848Z,68.64
2022-10-09T17:11:29.957Z,68.76
2022-10-09T17:13:58.141Z,68.94
2022-10-09T17:16:29.360Z,69.18
2022-10-09T17:18:58.124Z,69.16
2022-10-09T17:21:29.741Z,68.93
2022-10-09T17:24:03.802Z,69.47
2022-10-09T17:26:32.061Z,69.68
2022-10-09T17:29:01.068Z,69.69
2022-10-09T17:31:29.945Z,70.08
2022-10-09T17:34:00.323Z,70.29
2022-10-09T17:36:30.906Z,70.10
2022-10-09T17:38:59.071Z,70.46
2022-10-09T17:41:29.264Z,70.58
2022-10-09T17:43:58.464Z,70.29
2022-10-09T17:46:28.165Z,70.52
2022-10-09T17:48:58.494Z,70.85
2022-10-09T17:51:32.558Z,71.25
2022-10-09T17:54:04.917Z,71.23
2022-10-09T17:56:34.997Z,71.27
2022-10-09T17:59:03.999Z,71.36
2022-10-09T18:01:32.094Z,71.32
2022-10-09T18:04:00.176Z,71.35
2022-10-09T18:06:31.820Z,71.64
2022-10-09T18:09:00.192Z,71.63
2022-10-09T18:11:28.655Z,71.61
2022-10-09T18:13:56.665Z,71.76
2022-10-09T18:16:35.683Z,71.77
2022-10-09T18:19:14.884Z,71.86
2022-10-09T18:21:48.520Z,72.08
2022-10-09T18:24:17.489Z,72.24
2022-10-09T18:26:45.474Z,72.20
2022-10-09T18:29:14.064Z,72.41
2022-10-09T18:31:41.940Z,72.48
2022-10-09T18:34:10.628Z,72.47
2022-10-09T18:36:39.462Z,72.38
2022-10-09T18:39:09.966Z,72.50
2022-10-09T18:41:38.178Z,72.60
2022-10-09T18:44:12.642Z,72.51
2022-10-09T18:46:45.489Z,72.63
2022-10-09T18:49:16.036Z,72.56
2022-10-09T18:51:45.579Z,72.62
2022-10-09T18:54:17.913Z,73.01
2022-10-09T18:56:46.939Z,72.94
2022-10-09T18:59:18.544Z,72.66
2022-10-09T19:01:47.145Z,72.63
2022-10-09T19:04:15.543Z,72.76
2022-10-09T19:06:43.559Z,72.81
2022-10-09T19:09:11.413Z,73.00
2022-10-09T19:11:39.422Z,73.03
2022-10-09T19:14:07.319Z,73.23
2022-10-09T19:16:35.753Z,73.23
2022-10-09T19:19:04.090Z,73.11
2022-10-09T19:21:32.052Z,73.16
2022-10-09T19:24:03.828Z,73.51
2022-10-09T19:26:33.250Z,73.72
2022-10-09T19:29:01.806Z,73.61
2022-10-09T19:31:29.814Z,74.06
2022-10-09T19:34:00.186Z,74.26
2022-10-09T19:36:28.568Z,74.68
2022-10-09T19:38:56.858Z,74.72
2022-10-09T19:41:24.720Z,74.93
2022-10-09T19:43:53.080Z,75.28
2022-10-09T19:46:22.753Z,74.97
2022-10-09T19:48:51.524Z,75.31
2022-10-09T19:51:25.065Z,75.61
2022-10-09T19:53:53.936Z,75.71
2022-10-09T19:56:26.261Z,75.74
2022-10-09T19:58:55.485Z,76.17
2022-10-09T20:01:25.923Z,76.11
2022-10-09T20:04:02.742Z,75.99
2022-10-09T20:06:30.699Z,76.04
2022-10-09T20:08:58.833Z,76.03
2022-10-09T20:11:26.923Z,75.96
2022-10-09T20:13:56.602Z,75.96
2022-10-09T20:16:25.734Z,76.02
2022-10-09T20:18:55.457Z,75.91
2022-10-09T20:21:23.262Z,75.87
2022-10-09T20:23:51.938Z,76.06
2022-10-09T20:26:21.592Z,76.02
2022-10-09T20:28:50.540Z,75.97
2022-10-09T20:31:21.113Z,76.22
2022-10-09T20:33:50.278Z,76.24
2022-10-09T20:36:26.439Z,76.32
2022-10-09T20:38:56.799Z,76.44
2022-10-09T20:41:26.245Z,76.58
2022-10-09T20:43:57.008Z,76.48
2022-10-09T20:46:28.081Z,76.41
2022-10-09T20:48:56.813Z,76.31
2022-10-09T20:51:25.662Z,76.07
2022-10-09T20:53:56.105Z,75.88
2022-10-09T20:56:26.568Z,76.09
2022-10-09T20:58:55.861Z,76.22
2022-10-09T21:01:24.751Z,76.07
2022-10-09T21:03:52.711Z,75.76
2022-10-09T21:06:21.964Z,75.80
2022-10-09T21:08:50.514Z,75.75
2022-10-09T21:11:18.983Z,75.50
2022-10-09T21:13:48.175Z,75.45
2022-10-09T21:16:23.291Z,75.67
2022-10-09T21:19:01.012Z,75.68
2022-10-09T21:21:31.332Z,76.01
2022-10-09T21:24:00.664Z,76.02
2022-10-09T21:26:31.628Z,75.97
2022-10-09T21:29:00.225Z,76.37
2022-10-09T21:31:30.439Z,76.34
2022-10-09T21:34:01.119Z,76.67
2022-10-09T21:37:20.446Z,76.69
2022-10-09T21:39:43.176Z,76.74
2022-10-09T21:42:10.969Z,77.16
2022-10-09T21:44:38.809Z,77.29
2022-10-09T21:47:06.557Z,77.39
2022-10-09T21:49:34.402Z,77.57
2022-10-09T21:52:02.355Z,77.54
2022-10-09T21:54:30.135Z,77.83
2022-10-09T21:56:57.907Z,77.72
2022-10-09T21:59:25.786Z,77.79
2022-10-09T22:01:53.607Z,77.52
2022-10-09T22:04:21.978Z,77.33
2022-10-09T22:06:49.939Z,77.32
2022-10-09T22:09:17.767Z,77.57
2022-10-09T22:11:45.728Z,77.59
2022-10-09T22:14:13.633Z,77.82
2022-10-09T22:16:41.359Z,78.03
2022-10-09T22:19:09.106Z,77.99
2022-10-09T22:21:37.031Z,77.79
2022-10-09T22:24:04.911Z,77.77
2022-10-09T22:26:32.649Z,77.78
2022-10-09T22:29:00.380Z,78.04
2022-10-09T22:31:28.792Z,78.05
2022-10-09T22:33:59.625Z,77.89
2022-10-09T22:36:30.123Z,77.83
2022-10-09T22:39:00.441Z,77.65
2022-10-09T22:41:30.255Z,77.51
2022-10-09T22:43:59.684Z,77.35
2022-10-09T22:46:34.073Z,77.37
2022-10-09T22:49:02.356Z,77.36
2022-10-09T22:51:30.589Z,77.73
2022-10-09T22:53:59.776Z,77.68
2022-10-09T22:56:31.086Z,77.69
2022-10-09T22:58:59.189Z,77.96
2022-10-09T23:01:33.637Z,78.11
2022-10-09T23:04:07.056Z,78.06
2022-10-09T23:06:35.069Z,77.87
2022-10-09T23:09:05.474Z,78.11
2022-10-09T23:11:33.637Z,78.21
2022-10-09T23:14:01.941Z,78.38
2022-10-09T23:16:30.674Z,78.51
2022-10-09T23:19:05.430Z,78.51
2022-10-09T23:21:36.461Z,78.58
2022-10-09T23:24:05.650Z,78.64
2022-10-09T23:26:35.369Z,78.94
2022-10-09T23:29:09.485Z,78.90
2022-10-09T23:31:37.377Z,79.12
2022-10-09T23:34:07.698Z,79.09
2022-10-09T23:36:35.980Z,79.05
2022-10-09T23:39:06.119Z,78.94
2022-10-09T23:41:35.185Z,78.67
2022-10-09T23:44:03.684Z,78.93
2022-10-09T23:46:35.773Z,79.05
2022-10-09T23:49:04.698Z,79.20
2022-10-09T23:51:33.056Z,79.40
2022-10-09T23:54:01.003Z,79.52
2022-10-09T23:56:32.300Z,79.73
2022-10-09T23:59:02.704Z,79.76
